createdAt,value
2022-10-04T00:02:37.912Z,10.72
2022-10-04T00:05:42.493Z,10.69
2022-10-04T00:09:00.751Z,10.67
2022-10-04T00:12:04.938Z,10.66
2022-10-04T00:15:35.609Z,10.64
2022-10-04T00:18:42.273Z,10.60
2022-10-04T00:21:56.629Z,10.55
2022-10-04T00:25:20.831Z,10.54
2022-10-04T00:28:26.673Z,10.53
2022-10-04T00:31:30.360Z,10.48
2022-10-04T00:34:32.703Z,10.51
2022-10-04T00:37:54.216Z,10.49
2022-10-04T00:41:07.043Z,10.41
2022-10-04T00:44:17.853Z,10.40
2022-10-04T00:47:24.800Z,10.30
2022-10-04T00:50:33.116Z,10.26
2022-10-04T00:53:57.899Z,10.22
2022-10-04T00:57:05.090Z,10.22
2022-10-04T01:00:12.785Z,10.19
2022-10-04T01:03:24.098Z,10.18
2022-10-04T01:06:30.882Z,10.13
2022-10-04T01:09:36.958Z,10.14
2022-10-04T01:12:39.323Z,10.17
2022-10-04T01:15:44.573Z,10.17
2022-10-04T01:18:48.140Z,10.27
2022-10-04T01:21:59.662Z,10.27
2022-10-04T01:25:02.551Z,10.27
2022-10-04T01:28:05.637Z,10.33
2022-10-04T01:31:08.292Z,10.28
2022-10-04T01:34:13.681Z,10.29
2022-10-04T01:37:16.769Z,10.36
2022-10-04T01:40:20.135Z,10.39
2022-10-04T01:43:28.252Z,10.46
2022-10-04T01:46:37.365Z,10.52
2022-10-04T01:49:42.455Z,10.57
2022-10-04T01:52:48.931Z,10.54
2022-10-04T01:55:55.179Z,10.53
2022-10-04T01:59:01.175Z,10.57
2022-10-04T02:02:10.823Z,10.60
2022-10-04T02:05:18.150Z,10.55
2022-10-04T02:08:25.348Z,10.63
2022-10-04T02:11:30.429Z,10.72
2022-10-04T02:14:37.428Z,10.74
2022-10-04T02:17:43.903Z,10.71
2022-10-04T02:20:47.999Z,10.67
2022-10-04T02:23:52.559Z,10.65
2022-10-04T02:26:55.600Z,10.62
2022-10-04T02:30:16.028Z,10.56
2022-10-04T02:33:18.265Z,10.53
2022-10-04T02:36:25.147Z,10.47
2022-10-04T02:39:31.053Z,10.47
2022-10-04T02:42:48.269Z,10.53
2022-10-04T02:45:58.078Z,10.57
2022-10-04T02:49:03.264Z,10.71
2022-10-04T02:52:11.421Z,10.76
2022-10-04T02:55:22.251Z,10.80
2022-10-04T02:58:26.081Z,10.83
2022-10-04T03:01:39.028Z,10.82
2022-10-04T03:04:41.736Z,10.80
2022-10-04T03:07:44.357Z,10.82
2022-10-04T03:10:48.788Z,10.72
2022-10-04T03:13:53.513Z,10.77
2022-10-04T03:16:57.809Z,10.79
2022-10-04T03:20:01.436Z,10.80
2022-10-04T03:23:05.035Z,10.80
2022-10-04T03:26:26.586Z,10.78
2022-10-04T03:29:34.526Z,10.80
2022-10-04T03:32:39.258Z,10.79
2022-10-04T03:35:41.970Z,10.85
2022-10-04T03:38:46.218Z,10.87
2022-10-04T03:41:49.521Z,10.85
2022-10-04T03:44:55.179Z,10.84
2022-10-04T03:48:01.891Z,10.84
2022-10-04T03:51:07.415Z,10.84
2022-10-04T03:54:13.779Z,10.85
2022-10-04T03:57:16.599Z,10.86
2022-10-04T04:00:21.394Z,10.86
2022-10-04T04:03:26.787Z,10.88
2022-10-04T04:06:43.977Z,10.86
2022-10-04T04:09:58.565Z,10.82
2022-10-04T04:13:19.683Z,10.81
2022-10-04T04:16:26.573Z,10.86
2022-10-04T04:19:29.621Z,10.87
2022-10-04T04:22:32.352Z,10.88
2022-10-04T04:25:43.733Z,10.96
2022-10-04T04:28:55.391Z,11.00
2022-10-04T04:32:00.906Z,11.01
2022-10-04T04:35:08.880Z,10.98
2022-10-04T04:38:18.291Z,10.96
2022-10-04T04:41:22.457Z,11.07
2022-10-04T04:44:25.338Z,11.07
2022-10-04T04:47:30.818Z,11.08
2022-10-04T04:50:36.234Z,11.17
2022-10-04T04:53:44.353Z,11.23
2022-10-04T04:56:49.272Z,11.27
2022-10-04T05:00:01.497Z,11.38
2022-10-04T05:03:09.737Z,11.38
2022-10-04T05:06:25.727Z,11.43
2022-10-04T05:09:41.588Z,11.46
2022-10-04T05:12:47.317Z,11.52
2022-10-04T05:15:53.751Z,11.53
2022-10-04T05:19:14.363Z,11.60
2022-10-04T05:22:20.685Z,11.57
2022-10-04T05:25:29.830Z,11.67
2022-10-04T05:28:34.270Z,11.53
2022-10-04T05:31:57.337Z,11.50
2022-10-04T05:35:02.853Z,11.55
2022-10-04T05:38:33.782Z,11.50
2022-10-04T05:41:40.050Z,11.53
2022-10-04T05:44:47.515Z,11.39
2022-10-04T05:47:52.690Z,11.33
2022-10-04T05:50:55.781Z,11.28
2022-10-04T05:54:01.450Z,11.25
2022-10-04T05:57:37.307Z,11.31
2022-10-04T06:00:47.983Z,11.31
2022-10-04T06:04:15.045Z,11.29
2022-10-04T06:07:23.418Z,11.50
2022-10-04T06:10:29.326Z,11.63
2022-10-04T06:13:45.726Z,11.72
2022-10-04T06:16:55.348Z,11.79
2022-10-04T06:20:04.510Z,11.74
2022-10-04T06:23:32.993Z,11.82
2022-10-04T06:26:42.059Z,11.87
2022-10-04T06:29:52.281Z,11.92
2022-10-04T06:33:14.522Z,12.07
2022-10-04T06:36:35.488Z,12.04
2022-10-04T06:39:43.573Z,12.20
2022-10-04T06:43:06.202Z,12.24
2022-10-04T06:46:11.506Z,12.33
2022-10-04T06:49:29.643Z,12.34
2022-10-04T06:52:51.117Z,12.51
2022-10-04T06:56:16.738Z,12.81
2022-10-04T06:59:46.738Z,12.78
2022-10-04T07:03:14.223Z,12.67
2022-10-04T07:06:36.988Z,12.77
2022-10-04T07:09:42.340Z,12.73
2022-10-04T07:12:52.651Z,12.82
2022-10-04T07:15:58.231Z,12.95
2022-10-04T07:19:02.569Z,12.87
2022-10-04T07:22:07.724Z,12.92
2022-10-04T07:25:16.944Z,13.10
2022-10-04T07:28:45.484Z,13.20
2022-10-04T07:32:08.545Z,13.38
2022-10-04T07:35:10.972Z,13.20
2022-10-04T07:38:13.319Z,13.21
2022-10-04T07:41:26.077Z,13.34
2022-10-04T07:44:47.735Z,13.41
2022-10-04T07:47:51.302Z,13.40
2022-10-04T07:51:13.778Z,13.62
2022-10-04T07:54:25.076Z,13.84
2022-10-04T07:57:33.878Z,13.97
2022-10-04T08:00:55.259Z,14.30
2022-10-04T08:04:06.172Z,14.43
2022-10-04T08:07:29.320Z,14.48
2022-10-04T08:10:32.641Z,14.52
2022-10-04T08:13:43.418Z,14.58
2022-10-04T08:16:56.230Z,14.94
2022-10-04T08:20:19.154Z,14.64
2022-10-04T08:23:46.857Z,14.51
2022-10-04T08:26:56.712Z,14.23
2022-10-04T08:30:18.793Z,14.37
2022-10-04T08:33:24.512Z,14.30
2022-10-04T08:36:43.965Z,14.28
2022-10-04T08:39:46.981Z,14.57
2022-10-04T08:42:52.935Z,14.82
2022-10-04T08:46:14.482Z,14.82
2022-10-04T08:49:17.506Z,15.01
2022-10-04T08:52:38.450Z,14.90
2022-10-04T08:55:43.985Z,14.66
2022-10-04T08:59:07.435Z,14.70
2022-10-04T09:02:17.473Z,14.58
2022-10-04T09:05:39.498Z,14.46
2022-10-04T09:09:03.369Z,14.43
2022-10-04T09:12:20.749Z,14.75
2022-10-04T09:15:46.549Z,14.91
2022-10-04T09:18:54.429Z,15.11
2022-10-04T09:21:58.132Z,15.18
2022-10-04T09:25:03.551Z,15.11
2022-10-04T09:28:22.980Z,15.31
2022-10-04T09:31:44.081Z,15.33
2022-10-04T09:34:53.596Z,15.54
2022-10-04T09:38:03.577Z,15.31
2022-10-04T09:41:09.209Z,15.27
2022-10-04T09:44:17.562Z,15.13
2022-10-04T09:47:38.837Z,15.05
2022-10-04T09:51:00.775Z,15.06
2022-10-04T09:54:12.493Z,15.38
2022-10-04T09:57:19.350Z,15.22
2022-10-04T10:00:29.597Z,15.28
2022-10-04T10:03:44.031Z,15.17
2022-10-04T10:06:56.531Z,15.06
2022-10-04T10:10:29.563Z,14.90
2022-10-04T10:13:53.192Z,15.05
2022-10-04T10:17:07.821Z,15.05
2022-10-04T10:20:29.146Z,14.86
2022-10-04T10:23:51.934Z,14.90
2022-10-04T10:26:57.183Z,15.02
2022-10-04T10:30:06.467Z,15.20
2022-10-04T10:33:20.589Z,15.19
2022-10-04T10:36:29.119Z,15.10
2022-10-04T10:39:45.804Z,15.14
2022-10-04T10:42:57.148Z,15.12
2022-10-04T10:46:25.656Z,15.22
2022-10-04T10:49:45.185Z,15.36
2022-10-04T10:53:00.207Z,15.33
2022-10-04T10:56:02.345Z,15.11
2022-10-04T10:59:13.254Z,15.32
2022-10-04T11:02:15.225Z,15.76
2022-10-04T11:05:37.603Z,15.55
2022-10-04T11:08:59.520Z,15.90
2022-10-04T11:12:14.007Z,16.07
2022-10-04T11:15:38.572Z,16.27
2022-10-04T11:18:44.489Z,16.49
2022-10-04T11:22:10.331Z,16.58
2022-10-04T11:25:36.128Z,16.92
2022-10-04T11:28:54.362Z,17.13
2022-10-04T11:32:02.875Z,17.03
2022-10-04T11:35:23.998Z,16.65
2022-10-04T11:38:49.003Z,16.53
2022-10-04T11:41:57.652Z,16.46
2022-10-04T11:45:06.397Z,16.41
2022-10-04T11:48:32.373Z,16.46
2022-10-04T11:51:36.104Z,16.87
2022-10-04T11:54:48.605Z,17.29
2022-10-04T11:58:11.997Z,17.65
2022-10-04T12:01:30.788Z,17.68
2022-10-04T12:04:33.921Z,17.75
2022-10-04T12:07:42.799Z,17.56
2022-10-04T12:10:53.146Z,16.87
2022-10-04T12:14:23.477Z,16.68
2022-10-04T12:17:45.175Z,16.75
2022-10-04T12:21:07.772Z,16.87
2022-10-04T12:24:29.217Z,16.92
2022-10-04T12:27:52.111Z,16.74
2022-10-04T12:30:57.368Z,16.63
2022-10-04T12:34:15.759Z,16.76
2022-10-04T12:37:50.915Z,16.71
2022-10-04T12:40:56.244Z,16.93
2022-10-04T12:43:58.720Z,16.89
2022-10-04T12:47:20.830Z,16.73
2022-10-04T12:50:43.663Z,16.98
2022-10-04T12:53:58.890Z,17.12
2022-10-04T12:57:20.937Z,16.75
2022-10-04T13:00:25.249Z,16.66
2022-10-04T13:03:33.196Z,16.38
2022-10-04T13:06:53.792Z,16.39
2022-10-04T13:10:29.926Z,16.64
2022-10-04T13:13:45.698Z,16.73
2022-10-04T13:20:15.355Z,16.83
2022-10-04T13:23:27.563Z,16.80
2022-10-04T13:26:32.700Z,16.86
2022-10-04T13:29:44.508Z,16.98
2022-10-04T13:32:54.356Z,16.94
2022-10-04T13:35:59.897Z,16.87
2022-10-04T13:39:21.863Z,16.87
2022-10-04T13:42:49.615Z,16.76
2022-10-04T13:45:53.352Z,16.59
2022-10-04T13:49:12.454Z,16.61
2022-10-04T13:52:40.688Z,16.57
2022-10-04T13:56:06.588Z,16.62
2022-10-04T13:59:24.500Z,16.64
2022-10-04T14:02:39.622Z,16.61
2022-10-04T14:06:09.016Z,16.51
2022-10-04T14:09:33.492Z,16.29
2022-10-04T14:12:48.623Z,16.04
2022-10-04T14:16:07.605Z,16.22
2022-10-04T14:19:35.448Z,16.36
2022-10-04T14:22:52.081Z,16.54
2022-10-04T14:26:13.740Z,16.41
2022-10-04T14:29:46.764Z,16.38
2022-10-04T14:33:08.511Z,16.41
2022-10-04T14:36:20.535Z,16.02
2022-10-04T14:39:51.318Z,16.23
2022-10-04T14:43:15.533Z,15.96
2022-10-04T14:46:28.873Z,15.86
2022-10-04T14:49:38.248Z,15.95
2022-10-04T14:52:59.766Z,15.87
2022-10-04T14:56:10.600Z,15.82
2022-10-04T14:59:17.329Z,15.68
2022-10-04T15:06:12.532Z,15.56
2022-10-04T15:09:25.346Z,15.49
2022-10-04T15:12:51.977Z,15.49
2022-10-04T15:15:57.053Z,15.49
2022-10-04T15:19:06.268Z,15.33
2022-10-04T15:22:15.715Z,15.38
2022-10-04T15:25:37.235Z,15.23
2022-10-04T15:28:52.349Z,15.13
2022-10-04T15:32:07.739Z,15.10
2022-10-04T15:35:29.194Z,14.92
2022-10-04T15:38:39.925Z,14.90
2022-10-04T15:41:43.206Z,14.77
2022-10-04T15:44:54.255Z,14.70
2022-10-04T15:48:01.599Z,14.60
2022-10-04T15:51:14.214Z,14.47
2022-10-04T15:54:16.449Z,14.39
2022-10-04T15:57:37.503Z,14.34
2022-10-04T16:01:00.221Z,14.16
2022-10-04T16:04:19.028Z,14.07
2022-10-04T16:07:30.164Z,13.96
2022-10-04T16:10:52.954Z,13.86
2022-10-04T16:14:14.540Z,13.76
2022-10-04T16:17:29.208Z,13.70
2022-10-04T16:20:35.216Z,13.63
2022-10-04T16:23:44.024Z,13.54
2022-10-04T16:26:47.991Z,13.44
2022-10-04T16:30:28.736Z,13.36
2022-10-04T16:33:35.976Z,13.30
2022-10-04T16:36:52.826Z,13.26
2022-10-04T16:40:08.305Z,13.23
2022-10-04T16:43:24.105Z,13.17
2022-10-04T16:46:38.461Z,13.14
2022-10-04T16:49:49.732Z,13.07
2022-10-04T16:52:58.600Z,12.95
2022-10-04T16:56:30.142Z,12.96
2022-10-04T16:59:44.294Z,12.91
2022-10-04T17:02:59.553Z,12.91
2022-10-04T17:06:12.375Z,12.92
2022-10-04T17:09:25.478Z,12.91
2022-10-04T17:12:58.422Z,12.85
2022-10-04T17:16:12.291Z,12.83
2022-10-04T17:19:36.208Z,12.81
2022-10-04T17:23:04.526Z,12.78
2022-10-04T17:26:09.655Z,12.71
2022-10-04T17:29:18.802Z,12.68
2022-10-04T17:32:31.351Z,12.66
2022-10-04T17:35:52.406Z,12.63
2022-10-04T17:39:13.410Z,12.61
2022-10-04T17:42:39.494Z,12.55
2022-10-04T17:46:00.833Z,12.50
2022-10-04T17:49:28.254Z,12.49
2022-10-04T17:52:53.569Z,12.50
2022-10-04T17:55:58.102Z,12.49
2022-10-04T17:59:07.144Z,12.48
2022-10-04T18:02:11.951Z,12.47
2022-10-04T18:05:35.252Z,12.44
2022-10-04T18:08:47.356Z,12.37
2022-10-04T18:11:58.992Z,12.34
2022-10-04T18:15:01.517Z,12.33
2022-10-04T18:18:19.926Z,12.22
2022-10-04T18:21:32.890Z,12.24
2022-10-04T18:24:35.124Z,12.21
2022-10-04T18:27:58.344Z,12.12
2022-10-04T18:31:07.508Z,12.08
2022-10-04T18:34:32.591Z,12.04
2022-10-04T18:37:41.517Z,11.97
2022-10-04T18:40:53.566Z,12.04
2022-10-04T18:43:58.963Z,11.95
2022-10-04T18:47:03.457Z,11.88
2022-10-04T18:50:17.631Z,11.99
2022-10-04T18:53:27.403Z,11.95
2022-10-04T18:56:34.120Z,11.99
2022-10-04T19:00:03.899Z,11.95
2022-10-04T19:03:07.965Z,11.80
2022-10-04T19:06:17.473Z,11.67
2022-10-04T19:09:52.346Z,11.57
2022-10-04T19:13:15.584Z,11.50
2022-10-04T19:16:25.848Z,11.51
2022-10-04T19:19:37.627Z,11.39
2022-10-04T19:22:55.298Z,11.24
2022-10-04T19:26:31.144Z,11.11
2022-10-04T19:29:39.017Z,11.07
2022-10-04T19:32:49.399Z,10.98
2022-10-04T19:35:59.849Z,10.96
2022-10-04T19:39:09.030Z,10.94
2022-10-04T19:42:14.580Z,10.97
2022-10-04T19:45:33.861Z,10.83
2022-10-04T19:48:40.889Z,10.74
2022-10-04T19:51:52.126Z,10.75
2022-10-04T19:55:00.505Z,10.68
2022-10-04T19:58:17.521Z,10.61
2022-10-04T20:01:23.551Z,10.52
2022-10-04T20:04:43.346Z,10.49
2022-10-04T20:07:51.134Z,10.43
2022-10-04T20:11:13.174Z,10.33
2022-10-04T20:14:16.180Z,10.33
2022-10-04T20:17:45.010Z,10.37
2022-10-04T20:20:57.346Z,10.34
2022-10-04T20:24:01.972Z,10.35
2022-10-04T20:27:09.539Z,10.19
2022-10-04T20:30:16.817Z,10.12
2022-10-04T20:33:34.466Z,10.06
2022-10-04T20:36:47.117Z,10.05
2022-10-04T20:39:56.575Z,10.02
2022-10-04T20:43:15.511Z,9.96
2022-10-04T20:46:29.780Z,9.90
2022-10-04T20:49:32.229Z,9.88
2022-10-04T20:52:37.008Z,9.78
2022-10-04T20:55:42.204Z,9.74
2022-10-04T20:58:51.982Z,9.68
2022-10-04T21:02:01.817Z,9.68
2022-10-04T21:05:14.314Z,9.61
2022-10-04T21:08:24.572Z,9.53
2022-10-04T21:11:46.616Z,9.50
2022-10-04T21:15:05.515Z,9.45
2022-10-04T21:18:11.166Z,9.44
2022-10-04T21:21:15.605Z,9.45
2022-10-04T21:24:36.906Z,9.46
2022-10-04T21:27:44.580Z,9.37
2022-10-04T21:30:51.447Z,9.27
2022-10-04T21:33:54.175Z,9.19
2022-10-04T21:36:57.490Z,9.20
2022-10-04T21:39:59.948Z,9.18
2022-10-04T21:43:02.464Z,9.12
2022-10-04T21:46:05.225Z,8.99
2022-10-04T21:49:08.212Z,9.00
2022-10-04T21:52:11.258Z,8.94
2022-10-04T21:55:16.276Z,8.90
2022-10-04T21:58:22.301Z,8.88
2022-10-04T22:01:25.589Z,8.90
2022-10-04T22:04:30.225Z,8.91
2022-10-04T22:07:32.582Z,8.85
2022-10-04T22:10:34.878Z,8.74
2022-10-04T22:13:37.864Z,8.82
2022-10-04T22:16:40.262Z,8.76
2022-10-04T22:19:43.133Z,8.73
2022-10-04T22:22:45.829Z,8.68
2022-10-04T22:25:49.328Z,8.59
2022-10-04T22:28:54.051Z,8.62
2022-10-04T22:31:57.071Z,8.51
2022-10-04T22:35:01.944Z,8.53
2022-10-04T22:38:06.810Z,8.43
2022-10-04T22:41:14.207Z,8.32
2022-10-04T22:44:20.588Z,8.35
2022-10-04T22:47:24.762Z,8.29
2022-10-04T22:50:31.061Z,8.23
2022-10-04T22:53:34.363Z,8.18
2022-10-04T22:56:36.655Z,8.04
2022-10-04T22:59:40.448Z,7.95
2022-10-04T23:02:44.214Z,7.92
2022-10-04T23:05:47.729Z,7.90
2022-10-04T23:08:50.560Z,7.96
2022-10-04T23:11:53.644Z,8.01
2022-10-04T23:14:56.158Z,7.96
2022-10-04T23:17:58.495Z,7.90
2022-10-04T23:21:01.762Z,7.77
2022-10-04T23:24:13.020Z,7.73
2022-10-04T23:27:17.657Z,7.72
2022-10-04T23:30:21.830Z,7.68
2022-10-04T23:33:24.101Z,7.66
2022-10-04T23:36:26.849Z,7.59
2022-10-04T23:39:31.640Z,7.62
2022-10-04T23:42:34.263Z,7.57
2022-10-04T23:45:41.936Z,7.54
2022-10-04T23:48:45.620Z,7.54
2022-10-04T23:51:49.119Z,7.55
2022-10-04T23:54:53.245Z,7.47
2022-10-04T23:57:55.984Z,7.37
